Time;durP1;ratioP1;P1;durP2;ratioP2;P2;SDS_P1;SDS_P2;PMS_P1;PMS_P2;Temp;Humidity;BMP_temperature;BMP_pressure;BME280_temperature;BME280_humidity;BME280_pressure;Samples;Min_cycle;Max_cycle;Signal;HPM_P1;HPM_P2
2023/10/04 00:00:15;;;;;;;14.65;12.30;;;11.60;99.90;;;;;;4930237;28;20140;-76
2023/10/04 00:02:51;;;;;;;17.80;11.70;;;11.60;99.90;;;;;;4904969;28;20063;-77
2023/10/04 00:05:20;;;;;;;15.98;12.02;;;11.60;99.90;;;;;;4939006;28;20481;-76
2023/10/04 00:07:49;;;;;;;13.93;11.25;;;11.60;99.90;;;;;;4919056;28;20139;-76
2023/10/04 00:10:18;;;;;;;12.02;10.77;;;11.60;99.90;;;;;;4910964;28;20107;-76
2023/10/04 00:12:45;;;;;;;13.77;11.55;;;11.60;99.90;;;;;;4937959;28;20051;-76
2023/10/04 00:15:13;;;;;;;13.35;11.80;;;11.60;99.90;;;;;;4916626;28;20106;-75
2023/10/04 00:17:42;;;;;;;14.13;12.55;;;11.60;99.90;;;;;;4939782;28;20685;-74
2023/10/04 00:20:16;;;;;;;15.50;12.40;;;11.60;99.90;;;;;;4923826;28;20051;-75
2023/10/04 00:22:46;;;;;;;12.85;11.70;;;11.60;99.90;;;;;;4917994;28;20529;-75
2023/10/04 00:25:20;;;;;;;13.23;11.88;;;11.60;99.90;;;;;;4924400;28;20054;-76
2023/10/04 00:27:52;;;;;;;16.40;12.05;;;11.60;99.90;;;;;;4916576;28;20052;-74
2023/10/04 00:30:19;;;;;;;15.57;12.90;;;11.60;99.90;;;;;;4935135;28;20066;-76
2023/10/04 00:32:46;;;;;;;18.10;12.45;;;11.60;99.90;;;;;;4916023;28;20126;-76
2023/10/04 00:35:19;;;;;;;12.95;11.68;;;11.50;99.90;;;;;;4937152;28;20186;-76
2023/10/04 00:37:54;;;;;;;16.85;12.88;;;11.50;99.90;;;;;;4918935;28;20062;-76
2023/10/04 00:40:32;;;;;;;15.00;11.95;;;11.50;99.90;;;;;;4915387;29;20088;-76
2023/10/04 00:43:03;;;;;;;15.52;12.48;;;11.50;99.90;;;;;;4916498;28;20126;-76
2023/10/04 00:45:32;;;;;;;12.50;11.27;;;11.50;99.90;;;;;;4920243;29;20695;-76
2023/10/04 00:48:08;;;;;;;14.20;11.30;;;11.40;99.90;;;;;;4918425;28;20047;-77
2023/10/04 00:50:36;;;;;;;14.57;11.45;;;11.40;99.90;;;;;;4920753;29;20047;-74
2023/10/04 00:53:13;;;;;;;14.07;11.10;;;11.40;99.90;;;;;;4924233;28;20462;-76
2023/10/04 00:55:42;;;;;;;18.08;11.13;;;11.40;99.90;;;;;;4938074;28;20048;-75
2023/10/04 00:58:17;;;;;;;16.73;10.45;;;11.30;99.90;;;;;;4915564;28;20094;-75
2023/10/04 01:00:45;;;;;;;;;;;11.30;99.90;;;;;;4924848;28;20039;-76
2023/10/04 01:03:14;;;;;;;18.73;10.45;;;11.30;99.90;;;;;;4919125;28;20026;-76
2023/10/04 01:05:51;;;;;;;11.82;10.20;;;11.30;99.90;;;;;;4921698;28;20072;-76
2023/10/04 01:08:24;;;;;;;14.77;10.25;;;11.20;99.90;;;;;;4921153;28;20055;-75
2023/10/04 01:10:53;;;;;;;19.10;10.75;;;11.20;99.90;;;;;;4918434;28;20219;-74
2023/10/04 01:13:22;;;;;;;17.30;11.13;;;11.20;99.90;;;;;;4937295;28;20047;-75
2023/10/04 01:15:51;;;;;;;16.55;10.40;;;11.20;99.90;;;;;;4945868;28;20054;-76
2023/10/04 01:18:18;;;;;;;11.88;10.43;;;11.20;99.90;;;;;;4923363;28;20050;-76
2023/10/04 01:20:46;;;;;;;13.48;9.80;;;11.20;99.90;;;;;;4939823;28;20685;-74
2023/10/04 01:23:14;;;;;;;16.55;9.00;;;11.20;99.90;;;;;;4920463;28;20130;-75
2023/10/04 01:25:43;;;;;;;15.50;10.38;;;11.10;99.90;;;;;;4939787;28;20058;-76
2023/10/04 01:28:13;;;;;;;15.98;10.10;;;11.20;99.90;;;;;;4936885;28;22062;-76
2023/10/04 01:30:41;;;;;;;13.57;10.73;;;11.20;99.90;;;;;;4921737;29;20138;-76
2023/10/04 01:33:10;;;;;;;11.25;9.65;;;11.20;99.90;;;;;;4934426;28;20031;-75
2023/10/04 01:35:38;;;;;;;15.90;9.50;;;11.20;99.90;;;;;;4937757;28;20048;-75
2023/10/04 01:38:06;;;;;;;16.33;10.18;;;11.20;99.90;;;;;;4926073;28;20044;-75
2023/10/04 01:40:35;;;;;;;19.15;10.82;;;11.20;99.90;;;;;;4908224;29;20678;-76
2023/10/04 01:43:15;;;;;;;13.88;9.52;;;11.20;99.90;;;;;;4934335;28;20051;-76
2023/10/04 01:45:47;;;;;;;15.45;10.52;;;11.20;99.90;;;;;;4936369;28;20043;-75
2023/10/04 01:48:17;;;;;;;17.00;9.80;;;11.30;99.90;;;;;;4932120;28;20106;-76
2023/10/04 01:50:48;;;;;;;18.92;10.90;;;11.40;99.90;;;;;;4936572;28;20043;-76
2023/10/04 01:53:16;;;;;;;13.23;10.32;;;11.50;99.90;;;;;;4920450;28;20051;-75
2023/10/04 01:55:43;;;;;;;13.13;9.57;;;11.50;99.90;;;;;;4924444;28;20453;-76
2023/10/04 01:58:10;;;;;;;13.70;10.82;;;11.50;99.90;;;;;;4920181;28;20055;-77
2023/10/04 02:00:37;;;;;;;15.18;10.32;;;11.60;99.90;;;;;;4924086;29;20049;-77
2023/10/04 02:03:07;;;;;;;14.88;9.77;;;11.50;99.90;;;;;;4940231;28;20114;-76
2023/10/04 02:05:37;;;;;;;16.55;9.93;;;11.60;99.90;;;;;;4938476;28;20039;-76
2023/10/04 02:08:08;;;;;;;15.73;9.68;;;11.50;99.90;;;;;;4939281;28;20068;-76
2023/10/04 02:10:36;;;;;;;22.27;10.55;;;11.50;99.90;;;;;;4924218;29;20518;-76
2023/10/04 02:13:06;;;;;;;13.85;9.50;;;11.50;99.90;;;;;;4921557;28;20049;-76
2023/10/04 02:15:38;;;;;;;16.27;9.88;;;11.40;99.90;;;;;;4925245;29;20354;-76
2023/10/04 02:18:05;;;;;;;14.10;9.02;;;11.40;99.90;;;;;;4937445;28;20062;-76
2023/10/04 02:20:33;;;;;;;13.63;9.57;;;11.40;99.90;;;;;;4921680;29;20054;-76
2023/10/04 02:23:02;;;;;;;16.58;9.77;;;11.30;99.90;;;;;;4921769;28;20146;-76
2023/10/04 02:25:30;;;;;;;14.05;9.90;;;11.30;99.90;;;;;;4934398;28;20051;-76
2023/10/04 02:28:06;;;;;;;16.23;9.02;;;11.30;99.90;;;;;;4922955;28;20051;-75
2023/10/04 02:30:33;;;;;;;14.90;9.50;;;11.20;99.90;;;;;;4922394;29;20124;-77
2023/10/04 02:33:13;;;;;;;16.48;10.15;;;11.20;99.90;;;;;;4936691;28;20042;-76
2023/10/04 02:35:46;;;;;;;16.55;8.65;;;11.20;99.90;;;;;;4922455;28;20485;-77
2023/10/04 02:38:19;;;;;;;14.65;9.25;;;11.20;99.90;;;;;;4920238;28;20521;-77
2023/10/04 02:40:48;;;;;;;16.55;8.77;;;11.30;99.90;;;;;;4939490;28;20047;-76
2023/10/04 02:43:15;;;;;;;12.35;9.13;;;11.30;99.90;;;;;;4917284;28;20043;-76
2023/10/04 02:45:42;;;;;;;12.20;8.80;;;11.30;99.90;;;;;;4920743;29;20039;-76
2023/10/04 02:48:10;;;;;;;14.70;8.70;;;11.30;99.90;;;;;;4934463;28;20039;-76
2023/10/04 02:50:40;;;;;;;18.75;9.10;;;11.40;99.90;;;;;;4941026;28;20043;-77
2023/10/04 02:53:12;;;;;;;16.75;9.55;;;11.40;99.90;;;;;;4917338;28;20126;-76
2023/10/04 02:55:40;;;;;;;16.60;9.68;;;11.50;99.90;;;;;;4939565;28;20101;-76
2023/10/04 02:58:07;;;;;;;18.10;9.57;;;11.50;99.90;;;;;;4936135;28;20050;-77
2023/10/04 03:00:45;;;;;;;10.27;9.25;;;11.50;99.90;;;;;;4937973;28;20045;-76
2023/10/04 03:03:19;;;;;;;11.07;9.98;;;11.60;99.90;;;;;;4922775;28;20502;-76
2023/10/04 03:05:49;;;;;;;11.40;10.15;;;11.60;99.90;;;;;;4918083;28;20043;-76
2023/10/04 03:08:19;;;;;;;10.40;9.40;;;11.60;99.90;;;;;;4903900;28;20052;-77
2023/10/04 03:10:55;;;;;;;11.48;10.48;;;11.60;99.90;;;;;;4906582;28;20055;-76
2023/10/04 03:13:27;;;;;;;14.35;11.80;;;11.60;99.90;;;;;;4906955;29;20492;-76
2023/10/04 03:15:58;;;;;;;12.93;11.52;;;11.60;99.90;;;;;;4939954;28;20055;-75
2023/10/04 03:18:25;;;;;;;13.45;11.10;;;11.60;99.90;;;;;;4922206;29;20070;-77
2023/10/04 03:23:35;;;;;;;14.43;11.27;;;11.60;99.90;;;;;;4921363;29;20142;-77
2023/10/04 03:26:07;;;;;;;12.23;10.93;;;11.50;99.90;;;;;;4903445;28;20039;-76
2023/10/04 03:28:37;;;;;;;18.02;11.52;;;11.50;99.90;;;;;;4921086;29;20051;-76
2023/10/04 03:31:14;;;;;;;15.10;10.57;;;11.50;99.90;;;;;;4932814;28;20158;-77
2023/10/04 03:33:44;;;;;;;15.25;11.18;;;11.50;99.90;;;;;;4920402;28;20047;-76
2023/10/04 03:36:17;;;;;;;12.10;10.93;;;11.50;99.90;;;;;;4932209;28;20514;-76
2023/10/04 03:38:49;;;;;;;14.40;10.02;;;11.50;99.90;;;;;;4938076;28;20078;-77
2023/10/04 03:41:19;;;;;;;12.88;10.52;;;11.50;99.90;;;;;;4916267;28;20047;-77
2023/10/04 03:43:46;;;;;;;13.25;11.23;;;11.50;99.90;;;;;;4936582;28;20509;-76
2023/10/04 03:46:19;;;;;;;17.02;11.57;;;11.50;99.90;;;;;;4919221;28;20123;-76
2023/10/04 03:48:51;;;;;;;12.85;10.60;;;11.50;99.90;;;;;;4923431;28;20442;-76
2023/10/04 03:51:21;;;;;;;11.90;10.65;;;11.50;99.90;;;;;;4916329;28;20051;-77
2023/10/04 03:53:53;;;;;;;11.38;10.13;;;11.50;99.90;;;;;;4921422;28;20541;-76
2023/10/04 03:56:25;;;;;;;16.63;12.10;;;11.50;99.90;;;;;;4901906;28;20145;-76
2023/10/04 03:58:52;;;;;;;15.50;11.60;;;11.60;99.90;;;;;;4930253;28;20113;-76
2023/10/04 04:01:20;;;;;;;15.35;12.60;;;11.60;99.90;;;;;;4916388;28;20045;-76
2023/10/04 04:03:49;;;;;;;16.30;11.40;;;11.60;99.90;;;;;;4938376;28;20069;-76
2023/10/04 04:06:17;;;;;;;20.35;11.90;;;11.60;99.90;;;;;;4919119;28;20614;-77
2023/10/04 04:08:46;;;;;;;12.27;10.95;;;11.60;99.90;;;;;;4920382;28;20370;-76
2023/10/04 04:11:14;;;;;;;12.88;11.63;;;11.60;99.90;;;;;;4916319;28;20117;-76
2023/10/04 04:13:41;;;;;;;22.67;12.70;;;11.60;99.90;;;;;;4936509;28;20222;-76
2023/10/04 04:16:11;;;;;;;18.42;12.40;;;11.70;99.90;;;;;;4919968;28;20059;-76
2023/10/04 04:18:39;;;;;;;14.18;12.30;;;11.60;99.90;;;;;;4912342;29;20063;-76
2023/10/04 04:21:07;;;;;;;14.45;11.77;;;11.60;99.90;;;;;;4914144;28;20047;-77
2023/10/04 04:23:36;;;;;;;12.43;11.40;;;11.60;99.90;;;;;;4930289;28;20043;-77
2023/10/04 04:26:07;;;;;;;14.30;11.70;;;11.60;99.90;;;;;;4918028;28;20043;-75
2023/10/04 04:28:36;;;;;;;14.13;11.32;;;11.70;99.90;;;;;;4907350;29;20050;-76
2023/10/04 04:31:14;;;;;;;17.45;11.52;;;11.60;99.90;;;;;;4905218;28;20055;-76
2023/10/04 04:33:42;;;;;;;16.17;11.85;;;11.60;99.90;;;;;;4907550;28;20063;-77
2023/10/04 04:36:20;;;;;;;14.95;11.95;;;11.60;99.90;;;;;;4915503;28;20058;-77
2023/10/04 04:38:47;;;;;;;17.02;12.43;;;11.50;99.90;;;;;;4903427;28;20047;-76
2023/10/04 04:41:21;;;;;;;15.65;11.23;;;11.50;99.90;;;;;;4931960;28;20703;-76
2023/10/04 04:43:49;;;;;;;14.93;13.48;;;11.50;99.90;;;;;;4921340;28;20050;-76
2023/10/04 04:46:18;;;;;;;17.75;12.27;;;11.50;99.90;;;;;;4919714;28;20633;-76
2023/10/04 04:48:47;;;;;;;15.23;12.07;;;11.50;99.90;;;;;;4903964;28;20048;-78
2023/10/04 04:51:18;;;;;;;21.05;13.15;;;11.50;99.90;;;;;;4919168;28;20043;-77
2023/10/04 04:53:50;;;;;;;14.82;11.57;;;11.50;99.90;;;;;;4935761;28;20552;-77
2023/10/04 04:56:23;;;;;;;19.48;12.25;;;11.40;99.90;;;;;;4918870;28;20039;-76
2023/10/04 04:58:52;;;;;;;16.58;12.60;;;11.40;99.90;;;;;;4920088;28;20682;-77
2023/10/04 05:01:18;;;;;;;15.65;12.27;;;11.40;99.90;;;;;;4938233;28;20043;-75
2023/10/04 05:03:50;;;;;;;17.00;12.55;;;11.40;99.90;;;;;;4937168;28;20048;-78
2023/10/04 05:06:25;;;;;;;14.88;11.80;;;11.50;99.90;;;;;;4938921;28;20042;-77
2023/10/04 05:08:56;;;;;;;15.23;12.00;;;11.50;99.90;;;;;;4941452;28;20673;-77
2023/10/04 05:11:24;;;;;;;16.42;12.57;;;11.50;99.90;;;;;;4905674;28;20053;-76
2023/10/04 05:13:52;;;;;;;20.38;13.45;;;11.50;99.90;;;;;;4923056;28;20494;-76
2023/10/04 05:16:18;;;;;;;18.35;13.05;;;11.50;99.90;;;;;;4917300;28;21587;-77
2023/10/04 05:18:45;;;;;;;20.00;13.60;;;11.50;99.90;;;;;;4911514;28;20047;-77
2023/10/04 05:21:14;;;;;;;16.92;13.07;;;11.50;99.90;;;;;;4938403;28;20683;-77
2023/10/04 05:23:41;;;;;;;17.27;13.43;;;11.50;99.90;;;;;;4926070;29;20147;-76
2023/10/04 05:26:12;;;;;;;18.90;12.95;;;11.50;99.90;;;;;;4922246;28;20070;-77
2023/10/04 05:28:40;;;;;;;17.48;15.48;;;11.50;99.90;;;;;;4923558;29;20061;-76
2023/10/04 05:31:08;;;;;;;22.67;16.00;;;11.50;99.90;;;;;;4940126;28;20051;-76
2023/10/04 05:33:36;;;;;;;16.90;14.30;;;11.50;99.90;;;;;;4938245;28;20051;-76
2023/10/04 05:36:03;;;;;;;21.63;14.63;;;11.50;99.90;;;;;;4922641;28;20039;-77
2023/10/04 05:38:32;;;;;;;20.45;15.40;;;11.40;99.90;;;;;;4941352;28;20059;-76
2023/10/04 05:41:01;;;;;;;23.05;16.73;;;11.50;99.90;;;;;;4936550;28;20066;-76
2023/10/04 05:43:29;;;;;;;19.13;14.95;;;11.40;99.90;;;;;;4920952;28;20058;-76
2023/10/04 05:45:57;;;;;;;21.13;15.80;;;11.40;99.90;;;;;;4940719;28;20048;-77
2023/10/04 05:48:26;;;;;;;21.85;15.93;;;11.40;99.90;;;;;;4928627;28;20053;-77
2023/10/04 05:50:58;;;;;;;22.67;14.80;;;11.50;99.90;;;;;;4922221;28;20126;-76
2023/10/04 05:53:26;;;;;;;22.40;16.98;;;11.40;99.90;;;;;;4920881;28;20047;-77
2023/10/04 05:55:54;;;;;;;20.15;15.98;;;11.50;99.90;;;;;;4943094;28;20046;-76
2023/10/04 05:58:21;;;;;;;24.38;15.93;;;11.50;99.90;;;;;;4918700;28;20051;-76
2023/10/04 06:00:55;;;;;;;22.58;15.60;;;11.50;99.90;;;;;;4928900;28;20058;-77
2023/10/04 06:03:23;;;;;;;;;;;11.50;99.90;;;;;;4923040;28;20074;-77
2023/10/04 06:05:51;;;;;;;23.42;15.52;;;11.50;99.90;;;;;;4922613;28;20008;-77
2023/10/04 06:08:20;;;;;;;25.52;15.32;;;11.60;99.90;;;;;;4921603;28;20051;-76
2023/10/04 06:10:50;;;;;;;26.45;16.10;;;11.60;99.90;;;;;;4922167;28;20051;-77
2023/10/04 06:13:17;;;;;;;26.52;17.40;;;11.60;99.90;;;;;;4937935;28;20142;-77
2023/10/04 06:15:47;;;;;;;32.03;17.08;;;11.60;99.90;;;;;;4918513;28;20120;-77
2023/10/04 06:18:16;;;;;;;25.05;17.02;;;11.60;99.90;;;;;;4937311;28;20280;-75
2023/10/04 06:20:43;;;;;;;28.17;18.23;;;11.60;99.90;;;;;;4920218;29;20535;-76
2023/10/04 06:23:14;;;;;;;28.27;18.50;;;11.60;99.90;;;;;;4940464;28;20055;-76
2023/10/04 06:25:46;;;;;;;26.33;17.30;;;11.60;99.90;;;;;;4939765;28;20058;-77
2023/10/04 06:28:14;;;;;;;22.80;18.15;;;11.60;99.90;;;;;;4935457;28;20052;-75
2023/10/04 06:30:42;;;;;;;22.42;17.20;;;11.60;99.90;;;;;;4939610;28;20058;-76
2023/10/04 06:33:11;;;;;;;26.02;18.92;;;11.70;99.90;;;;;;4939573;28;20082;-77
2023/10/04 06:35:41;;;;;;;33.95;19.17;;;11.60;99.90;;;;;;4927513;28;20047;-75
2023/10/04 06:38:09;;;;;;;25.65;18.13;;;11.60;99.90;;;;;;4938233;28;20090;-76
2023/10/04 06:40:37;;;;;;;23.75;18.45;;;11.60;99.90;;;;;;4914340;29;20054;-76
2023/10/04 06:43:07;;;;;;;29.75;17.95;;;11.70;99.90;;;;;;4920108;29;20052;-77
2023/10/04 06:45:36;;;;;;;27.67;19.40;;;11.70;99.90;;;;;;4916741;28;20412;-76
2023/10/04 06:48:05;;;;;;;22.05;17.35;;;11.70;99.90;;;;;;4926172;28;20035;-75
2023/10/04 06:50:35;;;;;;;32.05;19.17;;;11.80;99.90;;;;;;4930667;28;20047;-78
2023/10/04 06:53:04;;;;;;;25.00;17.92;;;11.80;99.90;;;;;;4922276;28;20047;-77
2023/10/04 06:55:32;;;;;;;22.92;18.05;;;11.90;99.90;;;;;;4935926;28;20058;-75
2023/10/04 06:58:02;;;;;;;27.15;17.90;;;11.90;99.90;;;;;;4937468;28;20118;-75
2023/10/04 07:00:30;;;;;;;23.77;18.48;;;11.80;99.90;;;;;;4931348;28;20055;-74
2023/10/04 07:02:59;;;;;;;24.55;18.70;;;11.90;99.90;;;;;;4923827;28;20047;-74
2023/10/04 07:05:32;;;;;;;36.65;19.52;;;11.90;99.90;;;;;;4916365;28;20122;-75
2023/10/04 07:07:59;;;;;;;25.13;17.40;;;11.90;99.90;;;;;;4936230;28;20039;-74
2023/10/04 07:10:29;;;;;;;26.10;17.52;;;11.90;99.90;;;;;;4916762;28;20213;-75
2023/10/04 07:12:57;;;;;;;23.30;18.85;;;12.00;99.90;;;;;;4938841;28;20063;-74
2023/10/04 07:15:27;;;;;;;25.48;17.80;;;12.10;99.90;;;;;;4916819;28;20047;-75
2023/10/04 07:17:55;;;;;;;22.13;17.70;;;12.10;99.90;;;;;;4938399;28;20145;-78
2023/10/04 07:20:24;;;;;;;25.00;17.65;;;12.10;99.90;;;;;;4927208;28;20138;-79
2023/10/04 07:22:59;;;;;;;28.08;18.25;;;12.10;99.90;;;;;;4941973;28;20036;-77
2023/10/04 07:25:28;;;;;;;19.35;16.92;;;12.20;99.90;;;;;;4933757;28;20047;-77
2023/10/04 07:27:57;;;;;;;20.73;17.38;;;12.20;99.90;;;;;;4925538;28;20046;-78
2023/10/04 07:30:27;;;;;;;22.17;17.85;;;12.30;99.90;;;;;;4905177;28;20054;-77
2023/10/04 07:32:54;;;;;;;21.55;18.48;;;12.30;99.90;;;;;;4938973;28;20146;-79
2023/10/04 07:35:25;;;;;;;22.63;19.10;;;12.30;99.90;;;;;;4937413;28;20051;-78
2023/10/04 07:37:53;;;;;;;29.02;19.33;;;12.30;99.90;;;;;;4937894;28;20556;-78
2023/10/04 07:40:25;;;;;;;22.20;18.75;;;12.40;99.90;;;;;;4925066;28;20093;-78
2023/10/04 07:42:53;;;;;;;27.77;19.42;;;12.40;99.90;;;;;;4920159;28;20099;-79
2023/10/04 07:45:28;;;;;;;37.10;21.45;;;12.40;99.90;;;;;;4925557;28;20047;-79
2023/10/04 07:47:57;;;;;;;34.42;19.98;;;12.40;99.90;;;;;;4910571;28;20052;-78
2023/10/04 07:50:25;;;;;;;24.15;21.25;;;12.40;99.90;;;;;;4933369;28;20047;-78
2023/10/04 07:52:55;;;;;;;29.90;21.05;;;12.40;99.90;;;;;;4937164;28;20050;-79
2023/10/04 07:55:24;;;;;;;28.98;20.52;;;12.50;99.90;;;;;;4902251;28;20110;-76
2023/10/04 07:58:02;;;;;;;30.13;20.27;;;12.50;99.90;;;;;;4928170;28;20171;-78
2023/10/04 08:00:31;;;;;;;22.85;20.13;;;12.50;99.90;;;;;;4937321;28;20083;-78
2023/10/04 08:02:58;;;;;;;29.35;20.55;;;12.50;99.90;;;;;;4939477;28;20039;-78
2023/10/04 08:05:31;;;;;;;22.48;20.13;;;12.50;99.90;;;;;;4919080;28;20051;-77
2023/10/04 08:08:03;;;;;;;25.65;19.63;;;12.60;99.90;;;;;;4925283;28;20474;-78
2023/10/04 08:10:33;;;;;;;22.33;19.58;;;12.60;99.90;;;;;;4932054;28;20067;-78
2023/10/04 08:13:02;;;;;;;26.77;21.02;;;12.50;99.90;;;;;;4935925;28;20043;-77
2023/10/04 08:15:30;;;;;;;24.52;20.58;;;12.50;99.90;;;;;;4937128;28;20070;-78
2023/10/04 08:17:58;;;;;;;24.77;19.90;;;12.60;99.90;;;;;;4906250;28;20098;-78
2023/10/04 08:20:32;;;;;;;21.80;19.63;;;12.70;99.90;;;;;;4921642;28;20139;-78
2023/10/04 08:23:04;;;;;;;27.73;20.73;;;12.70;99.90;;;;;;4921016;28;20082;-77
2023/10/04 08:25:32;;;;;;;27.88;20.77;;;12.70;99.90;;;;;;4935834;28;20062;-78
2023/10/04 08:28:00;;;;;;;37.08;21.83;;;12.70;99.90;;;;;;4939258;28;20059;-77
2023/10/04 08:30:30;;;;;;;33.63;23.40;;;12.70;99.90;;;;;;4922098;28;20154;-77
2023/10/04 08:32:59;;;;;;;24.58;21.92;;;12.80;99.90;;;;;;4941341;28;20047;-77
2023/10/04 08:35:35;;;;;;;25.25;21.63;;;12.90;99.90;;;;;;4944450;28;20256;-77
2023/10/04 08:38:05;;;;;;;29.05;22.52;;;12.90;99.90;;;;;;4940887;28;20062;-77
2023/10/04 08:40:41;;;;;;;26.20;22.40;;;12.90;99.90;;;;;;4920489;28;20059;-77
2023/10/04 08:43:09;;;;;;;25.02;20.92;;;12.90;99.90;;;;;;4928792;28;20066;-78
2023/10/04 08:45:36;;;;;;;27.67;21.92;;;12.90;99.90;;;;;;4941672;28;20058;-79
2023/10/04 08:48:04;;;;;;;37.17;22.67;;;13.00;99.90;;;;;;4946415;28;20225;-76
2023/10/04 08:50:54;;;;;;;29.85;23.23;;;13.00;99.90;;;;;;4936149;28;20062;-77
2023/10/04 08:53:41;;;;;;;28.73;21.10;;;13.00;99.90;;;;;;4953504;28;20051;-77
2023/10/04 08:56:12;;;;;;;27.20;21.27;;;13.00;99.90;;;;;;4949079;28;20047;-77
2023/10/04 08:58:45;;;;;;;28.02;22.65;;;13.00;99.90;;;;;;4942491;28;20394;-77
2023/10/04 09:01:15;;;;;;;27.83;23.00;;;13.10;99.90;;;;;;4916890;28;20161;-76
2023/10/04 09:03:43;;;;;;;40.15;23.25;;;13.10;99.90;;;;;;4943753;28;20043;-77
2023/10/04 09:06:14;;;;;;;27.92;22.08;;;13.20;99.90;;;;;;4918660;28;20057;-77
2023/10/04 09:08:41;;;;;;;27.17;22.77;;;13.40;99.90;;;;;;4924662;28;20143;-77
2023/10/04 09:11:15;;;;;;;31.25;23.20;;;13.60;99.90;;;;;;4945393;28;20122;-76
2023/10/04 09:13:47;;;;;;;24.80;22.38;;;13.80;99.90;;;;;;4944938;28;20062;-75
2023/10/04 09:16:22;;;;;;;27.52;23.45;;;13.90;99.90;;;;;;4914908;28;20051;-77
2023/10/04 09:19:07;;;;;;;25.38;22.50;;;13.90;99.90;;;;;;4933283;28;20039;-76
2023/10/04 09:21:38;;;;;;;29.35;24.73;;;13.80;99.90;;;;;;4949141;28;20043;-76
2023/10/04 09:24:09;;;;;;;26.20;23.15;;;13.80;99.90;;;;;;4940629;28;20078;-75
2023/10/04 09:26:38;;;;;;;26.05;23.25;;;13.80;99.90;;;;;;4920097;28;20047;-76
2023/10/04 09:29:05;;;;;;;28.52;23.08;;;13.80;99.90;;;;;;4920908;28;20419;-78
2023/10/04 09:31:46;;;;;;;26.67;23.80;;;13.80;99.90;;;;;;4920040;28;20078;-74
2023/10/04 09:34:13;;;;;;;26.73;23.90;;;13.90;99.90;;;;;;4939509;28;20087;-74
2023/10/04 09:36:42;;;;;;;48.50;25.40;;;13.90;99.90;;;;;;4938911;28;20039;-76
2023/10/04 09:39:13;;;;;;;27.33;23.05;;;13.90;99.90;;;;;;4929774;28;20058;-77
2023/10/04 09:41:42;;;;;;;34.17;23.27;;;14.00;99.90;;;;;;4933010;28;20043;-79
2023/10/04 09:44:29;;;;;;;26.80;23.98;;;14.00;99.90;;;;;;4958853;28;20059;-78
2023/10/04 09:47:02;;;;;;;26.13;23.67;;;14.00;99.90;;;;;;4957404;28;20047;-79
2023/10/04 09:49:32;;;;;;;25.52;22.75;;;14.20;99.90;;;;;;4931015;28;20054;-77
2023/10/04 09:52:00;;;;;;;41.13;32.00;;;14.70;99.90;;;;;;4938841;28;20069;-78
2023/10/04 09:54:28;;;;;;;37.28;25.00;;;14.90;99.90;;;;;;4936481;28;20043;-77
2023/10/04 09:56:57;;;;;;;30.10;24.15;;;14.90;99.90;;;;;;4933304;28;20047;-78
2023/10/04 09:59:24;;;;;;;29.20;25.15;;;14.90;99.90;;;;;;4933067;28;20055;-78
2023/10/04 10:01:56;;;;;;;47.13;25.35;;;14.80;99.90;;;;;;4949257;28;20043;-77
2023/10/04 10:04:49;;;;;;;198.40;36.00;;;14.80;99.90;;;;;;4944529;28;20129;-78
2023/10/04 10:07:21;;;;;;;76.63;27.77;;;15.00;99.90;;;;;;4948508;28;20070;-79
2023/10/04 10:10:11;;;;;;;28.23;24.17;;;15.30;99.90;;;;;;4932058;28;20116;-78
2023/10/04 10:12:48;;;;;;;26.08;23.58;;;15.30;99.90;;;;;;4929812;28;20043;-79
2023/10/04 10:15:18;;;;;;;25.40;23.20;;;14.90;99.90;;;;;;4947050;28;20043;-78
2023/10/04 10:17:46;;;;;;;27.90;23.42;;;14.80;99.90;;;;;;4927613;28;20127;-79
2023/10/04 10:20:15;;;;;;;25.42;22.60;;;14.90;99.90;;;;;;4930614;28;20039;-77
2023/10/04 10:22:57;;;;;;;25.55;22.92;;;14.90;99.90;;;;;;4924996;28;20043;-80
2023/10/04 10:25:29;;;;;;;27.52;24.33;;;15.10;99.90;;;;;;4915666;28;20055;-80
2023/10/04 10:27:57;;;;;;;27.02;23.92;;;15.30;99.90;;;;;;4925303;29;20047;-78
2023/10/04 10:30:28;;;;;;;25.13;23.02;;;15.60;99.90;;;;;;4913648;28;20773;-80
2023/10/04 10:32:59;;;;;;;25.35;23.15;;;15.30;99.90;;;;;;4925982;28;20413;-79
2023/10/04 10:35:48;;;;;;;25.95;23.63;;;15.30;99.90;;;;;;4931896;28;20112;-79
2023/10/04 10:38:40;;;;;;;24.80;22.70;;;15.20;99.90;;;;;;4929977;28;20048;-80
2023/10/04 10:41:10;;;;;;;55.40;26.98;;;15.20;99.90;;;;;;4924400;28;20081;-78
2023/10/04 10:44:24;;;;;;;26.50;23.27;;;15.20;99.90;;;;;;4941535;28;20046;-78
2023/10/04 10:46:54;;;;;;;27.33;24.67;;;15.40;99.90;;;;;;4934993;28;20048;-78
2023/10/04 10:49:40;;;;;;;26.20;24.02;;;15.70;99.90;;;;;;4917655;28;20102;-78
2023/10/04 10:52:23;;;;;;;26.23;23.73;;;15.70;99.90;;;;;;4937012;28;20194;-75
2023/10/04 10:54:52;;;;;;;27.27;24.48;;;15.50;99.90;;;;;;4938765;28;20426;-75
2023/10/04 10:57:20;;;;;;;28.15;25.52;;;15.50;99.90;;;;;;4932951;28;20044;-76
2023/10/04 10:59:55;;;;;;;26.35;23.77;;;15.80;99.90;;;;;;4935849;28;20082;-76
2023/10/04 11:02:24;;;;;;;27.55;24.92;;;16.10;99.90;;;;;;4906909;28;20106;-76
2023/10/04 11:04:52;;;;;;;26.92;24.70;;;16.50;99.90;;;;;;4915842;28;20058;-77
2023/10/04 11:07:21;;;;;;;26.38;24.27;;;16.80;99.90;;;;;;4941875;28;20050;-78
2023/10/04 11:09:53;;;;;;;26.30;23.55;;;16.90;99.90;;;;;;4937891;28;20239;-75
2023/10/04 11:12:22;;;;;;;26.33;24.23;;;16.60;99.90;;;;;;4939192;28;20051;-74
2023/10/04 11:14:51;;;;;;;27.63;25.33;;;16.20;99.90;;;;;;4941603;28;20602;-75
2023/10/04 11:17:22;;;;;;;26.45;24.20;;;16.00;99.90;;;;;;4927310;28;20082;-77
2023/10/04 11:19:52;;;;;;;28.33;25.45;;;15.60;99.90;;;;;;4939618;28;20866;-74
2023/10/04 11:22:22;;;;;;;28.17;25.40;;;15.70;99.90;;;;;;4940546;28;20035;-75
2023/10/04 11:24:50;;;;;;;26.25;24.15;;;15.60;99.90;;;;;;4938843;28;20181;-75
2023/10/04 11:27:22;;;;;;;25.70;23.52;;;15.90;99.90;;;;;;4927334;28;20524;-74
2023/10/04 11:29:50;;;;;;;27.67;24.17;;;15.80;99.90;;;;;;4937885;28;20165;-75
2023/10/04 11:32:17;;;;;;;28.67;25.60;;;15.90;99.90;;;;;;4944748;28;20070;-74
2023/10/04 11:34:45;;;;;;;26.00;23.77;;;16.00;99.90;;;;;;4938143;28;20051;-76
2023/10/04 11:37:13;;;;;;;27.02;24.80;;;16.00;99.90;;;;;;4942752;28;20114;-75
2023/10/04 11:39:45;;;;;;;27.33;24.52;;;15.80;99.90;;;;;;4924183;28;20051;-74
2023/10/04 11:42:17;;;;;;;25.65;23.13;;;15.50;99.90;;;;;;4934566;28;20043;-75
2023/10/04 11:44:44;;;;;;;25.25;23.23;;;15.40;99.90;;;;;;4904674;28;20057;-74
2023/10/04 11:47:14;;;;;;;25.08;22.40;;;15.60;99.90;;;;;;4937143;28;20073;-74
2023/10/04 11:49:55;;;;;;;26.42;24.13;;;15.70;99.90;;;;;;4934012;28;20043;-75
2023/10/04 11:52:22;;;;;;;25.92;23.20;;;16.00;99.90;;;;;;4932508;28;20110;-74
2023/10/04 11:54:49;;;;;;;26.77;23.92;;;16.00;99.90;;;;;;4935626;28;20046;-76
2023/10/04 11:57:31;;;;;;;25.90;23.35;;;15.80;99.90;;;;;;4937047;28;20063;-76
2023/10/04 12:00:15;;;;;;;27.60;25.15;;;15.70;99.90;;;;;;4936485;28;20055;-75
2023/10/04 12:02:43;;;;;;;27.00;24.23;;;15.60;99.90;;;;;;4930852;28;20099;-76
2023/10/04 12:05:11;;;;;;;26.50;23.77;;;15.50;99.90;;;;;;4936643;28;20035;-76
2023/10/04 12:07:39;;;;;;;26.58;24.27;;;15.50;99.90;;;;;;4921345;29;20471;-76
2023/10/04 12:10:09;;;;;;;27.58;24.70;;;15.60;99.90;;;;;;4907480;28;20055;-76
2023/10/04 12:12:37;;;;;;;27.92;22.92;;;15.70;99.90;;;;;;4935869;28;20043;-76
2023/10/04 12:15:08;;;;;;;24.48;22.40;;;15.70;99.90;;;;;;4920977;28;20105;-76
2023/10/04 12:17:36;;;;;;;25.92;23.40;;;15.60;99.90;;;;;;4932885;28;20147;-76
2023/10/04 12:20:04;;;;;;;26.98;24.42;;;15.70;99.90;;;;;;4933453;28;20715;-76
2023/10/04 12:22:32;;;;;;;24.70;22.60;;;15.70;99.90;;;;;;4910032;29;20115;-76
2023/10/04 12:24:59;;;;;;;26.50;23.95;;;15.70;99.90;;;;;;4916491;28;20067;-76
2023/10/04 12:27:27;;;;;;;25.92;23.60;;;15.80;99.90;;;;;;4917551;28;20141;-76
2023/10/04 12:30:07;;;;;;;27.15;24.38;;;15.90;99.90;;;;;;4929637;28;20067;-76
2023/10/04 12:32:34;;;;;;;25.58;23.13;;;15.90;99.90;;;;;;4934754;28;20055;-76
2023/10/04 12:35:01;;;;;;;25.40;22.95;;;16.00;99.90;;;;;;4934062;28;20293;-76
2023/10/04 12:37:28;;;;;;;25.70;23.27;;;15.90;99.90;;;;;;4903185;28;20063;-76
2023/10/04 12:39:56;;;;;;;26.90;24.17;;;16.00;99.90;;;;;;4917570;28;20043;-76
2023/10/04 12:42:23;;;;;;;25.70;23.33;;;15.90;99.90;;;;;;4929658;28;20465;-75
2023/10/04 12:44:50;;;;;;;26.50;23.98;;;15.70;99.90;;;;;;4935023;28;20078;-75
2023/10/04 12:47:19;;;;;;;25.80;23.60;;;15.60;99.90;;;;;;4931942;28;20051;-76